sensor_id;sensor_type;location;lat;lon;timestamp;P1;durP1;ratioP1;P2;durP2;ratioP2
69083;SDS011;56185;48.526;9.044;2023-01-08T00:01:14;14.73;;;10.02;;
69083;SDS011;56185;48.526;9.044;2023-01-08T00:03:39;12.25;;;9.13;;
69083;SDS011;56185;48.526;9.044;2023-01-08T00:06:06;13.55;;;9.13;;
69083;SDS011;56185;48.526;9.044;2023-01-08T00:08:32;15.27;;;9.77;;
69083;SDS011;56185;48.526;9.044;2023-01-08T00:10:58;14.30;;;9.35;;
69083;SDS011;56185;48.526;9.044;2023-01-08T00:13:24;14.07;;;9.25;;
69083;SDS011;56185;48.526;9.044;2023-01-08T00:15:49;15.73;;;9.52;;
69083;SDS011;56185;48.526;9.044;2023-01-08T00:18:16;14.00;;;9.20;;
69083;SDS011;56185;48.526;9.044;2023-01-08T00:20:41;13.05;;;8.20;;
69083;SDS011;56185;48.526;9.044;2023-01-08T00:23:14;12.32;;;8.27;;
69083;SDS011;56185;48.526;9.044;2023-01-08T00:25:40;11.10;;;7.95;;
69083;SDS011;56185;48.526;9.044;2023-01-08T00:28:05;14.30;;;9.02;;
69083;SDS011;56185;48.526;9.044;2023-01-08T00:30:30;14.02;;;9.18;;
69083;SDS011;56185;48.526;9.044;2023-01-08T00:32:56;14.23;;;9.38;;
69083;SDS011;56185;48.526;9.044;2023-01-08T00:35:21;14.10;;;9.35;;
69083;SDS011;56185;48.526;9.044;2023-01-08T00:37:49;13.15;;;9.00;;
69083;SDS011;56185;48.526;9.044;2023-01-08T00:40:15;12.45;;;8.35;;
69083;SDS011;56185;48.526;9.044;2023-01-08T00:42:41;13.25;;;8.63;;
69083;SDS011;56185;48.526;9.044;2023-01-08T00:45:06;13.07;;;8.30;;
69083;SDS011;56185;48.526;9.044;2023-01-08T00:47:32;14.63;;;9.00;;
69083;SDS011;56185;48.526;9.044;2023-01-08T00:49:57;12.55;;;9.23;;
69083;SDS011;56185;48.526;9.044;2023-01-08T00:52:23;16.60;;;10.13;;
69083;SDS011;56185;48.526;9.044;2023-01-08T00:54:48;20.75;;;10.13;;
69083;SDS011;56185;48.526;9.044;2023-01-08T00:57:13;14.57;;;8.85;;
69083;SDS011;56185;48.526;9.044;2023-01-08T00:59:39;13.18;;;8.32;;
69083;SDS011;56185;48.526;9.044;2023-01-08T01:02:04;13.53;;;8.60;;
69083;SDS011;56185;48.526;9.044;2023-01-08T01:04:29;14.32;;;8.77;;
69083;SDS011;56185;48.526;9.044;2023-01-08T01:06:54;16.00;;;9.80;;
69083;SDS011;56185;48.526;9.044;2023-01-08T01:09:20;13.98;;;8.45;;
69083;SDS011;56185;48.526;9.044;2023-01-08T01:11:45;11.85;;;8.43;;
69083;SDS011;56185;48.526;9.044;2023-01-08T01:14:10;17.25;;;9.35;;
69083;SDS011;56185;48.526;9.044;2023-01-08T01:16:36;13.30;;;8.65;;
69083;SDS011;56185;48.526;9.044;2023-01-08T01:19:01;13.48;;;8.80;;
69083;SDS011;56185;48.526;9.044;2023-01-08T01:21:28;14.35;;;9.05;;
69083;SDS011;56185;48.526;9.044;2023-01-08T01:23:55;16.08;;;10.63;;
69083;SDS011;56185;48.526;9.044;2023-01-08T01:26:22;19.92;;;11.10;;
69083;SDS011;56185;48.526;9.044;2023-01-08T01:28:49;21.20;;;11.43;;
69083;SDS011;56185;48.526;9.044;2023-01-08T01:31:16;17.45;;;10.98;;
69083;SDS011;56185;48.526;9.044;2023-01-08T01:33:42;17.73;;;10.32;;
69083;SDS011;56185;48.526;9.044;2023-01-08T01:36:09;15.75;;;9.85;;
69083;SDS011;56185;48.526;9.044;2023-01-08T01:38:36;13.30;;;8.65;;
69083;SDS011;56185;48.526;9.044;2023-01-08T01:41:01;15.77;;;9.83;;
69083;SDS011;56185;48.526;9.044;2023-01-08T01:46:04;15.95;;;10.07;;
69083;SDS011;56185;48.526;9.044;2023-01-08T01:48:39;13.98;;;9.20;;
69083;SDS011;56185;48.526;9.044;2023-01-08T01:51:04;16.25;;;9.77;;
69083;SDS011;56185;48.526;9.044;2023-01-08T01:53:31;16.88;;;10.73;;
69083;SDS011;56185;48.526;9.044;2023-01-08T01:55:57;17.58;;;10.23;;
69083;SDS011;56185;48.526;9.044;2023-01-08T01:58:25;16.02;;;9.73;;
69083;SDS011;56185;48.526;9.044;2023-01-08T02:00:52;20.33;;;10.00;;
69083;SDS011;56185;48.526;9.044;2023-01-08T02:03:21;13.02;;;9.02;;
69083;SDS011;56185;48.526;9.044;2023-01-08T02:08:54;15.77;;;8.85;;
69083;SDS011;56185;48.526;9.044;2023-01-08T02:11:28;13.35;;;8.50;;
69083;SDS011;56185;48.526;9.044;2023-01-08T02:14:33;12.15;;;8.40;;
69083;SDS011;56185;48.526;9.044;2023-01-08T02:16:54;14.32;;;8.65;;
69083;SDS011;56185;48.526;9.044;2023-01-08T02:28:05;13.35;;;8.80;;
69083;SDS011;56185;48.526;9.044;2023-01-08T02:30:35;14.25;;;9.13;;
69083;SDS011;56185;48.526;9.044;2023-01-08T02:33:00;13.43;;;9.63;;
69083;SDS011;56185;48.526;9.044;2023-01-08T02:35:36;14.45;;;9.68;;
69083;SDS011;56185;48.526;9.044;2023-01-08T02:38:07;14.43;;;8.70;;
69083;SDS011;56185;48.526;9.044;2023-01-08T02:40:39;15.95;;;9.40;;
69083;SDS011;56185;48.526;9.044;2023-01-08T02:43:15;14.63;;;9.20;;
69083;SDS011;56185;48.526;9.044;2023-01-08T02:45:46;13.10;;;9.05;;
69083;SDS011;56185;48.526;9.044;2023-01-08T02:51:18;12.77;;;8.75;;
69083;SDS011;56185;48.526;9.044;2023-01-08T02:53:49;13.35;;;8.68;;
69083;SDS011;56185;48.526;9.044;2023-01-08T02:56:19;12.85;;;8.13;;
69083;SDS011;56185;48.526;9.044;2023-01-08T02:58:48;11.35;;;8.13;;
69083;SDS011;56185;48.526;9.044;2023-01-08T03:01:16;12.65;;;8.50;;
69083;SDS011;56185;48.526;9.044;2023-01-08T03:03:43;15.10;;;8.75;;
69083;SDS011;56185;48.526;9.044;2023-01-08T03:06:13;11.90;;;8.07;;
69083;SDS011;56185;48.526;9.044;2023-01-08T03:08:42;14.50;;;9.52;;
69083;SDS011;56185;48.526;9.044;2023-01-08T03:11:12;14.25;;;9.23;;
69083;SDS011;56185;48.526;9.044;2023-01-08T03:16:44;14.38;;;8.75;;
69083;SDS011;56185;48.526;9.044;2023-01-08T03:21:46;13.38;;;8.75;;
69083;SDS011;56185;48.526;9.044;2023-01-08T03:24:13;13.63;;;9.35;;
69083;SDS011;56185;48.526;9.044;2023-01-08T03:26:41;13.88;;;9.23;;
69083;SDS011;56185;48.526;9.044;2023-01-08T03:29:09;13.93;;;8.80;;
69083;SDS011;56185;48.526;9.044;2023-01-08T03:31:37;13.10;;;8.77;;
69083;SDS011;56185;48.526;9.044;2023-01-08T03:34:04;15.50;;;9.55;;
69083;SDS011;56185;48.526;9.044;2023-01-08T03:36:30;15.20;;;9.85;;
69083;SDS011;56185;48.526;9.044;2023-01-08T03:39:04;13.13;;;8.80;;
69083;SDS011;56185;48.526;9.044;2023-01-08T03:41:36;11.73;;;8.02;;
69083;SDS011;56185;48.526;9.044;2023-01-08T03:44:02;11.98;;;8.75;;
69083;SDS011;56185;48.526;9.044;2023-01-08T03:46:30;12.93;;;8.18;;
69083;SDS011;56185;48.526;9.044;2023-01-08T03:48:58;14.90;;;8.60;;
69083;SDS011;56185;48.526;9.044;2023-01-08T03:51:25;12.50;;;8.65;;
69083;SDS011;56185;48.526;9.044;2023-01-08T03:53:51;14.43;;;8.88;;
69083;SDS011;56185;48.526;9.044;2023-01-08T03:56:20;13.00;;;7.95;;
69083;SDS011;56185;48.526;9.044;2023-01-08T03:58:45;14.00;;;8.98;;
69083;SDS011;56185;48.526;9.044;2023-01-08T04:01:11;11.88;;;8.60;;
69083;SDS011;56185;48.526;9.044;2023-01-08T04:03:36;11.70;;;8.18;;
69083;SDS011;56185;48.526;9.044;2023-01-08T04:06:01;11.27;;;7.78;;
69083;SDS011;56185;48.526;9.044;2023-01-08T04:08:26;12.57;;;8.68;;
69083;SDS011;56185;48.526;9.044;2023-01-08T04:10:52;15.77;;;9.50;;
69083;SDS011;56185;48.526;9.044;2023-01-08T04:13:17;18.90;;;11.05;;
69083;SDS011;56185;48.526;9.044;2023-01-08T04:15:49;18.27;;;9.43;;
69083;SDS011;56185;48.526;9.044;2023-01-08T04:18:15;15.00;;;10.02;;
69083;SDS011;56185;48.526;9.044;2023-01-08T04:20:44;16.27;;;9.80;;
69083;SDS011;56185;48.526;9.044;2023-01-08T04:23:09;14.80;;;9.20;;
69083;SDS011;56185;48.526;9.044;2023-01-08T04:25:36;14.80;;;9.00;;
69083;SDS011;56185;48.526;9.044;2023-01-08T04:28:01;13.40;;;8.50;;
69083;SDS011;56185;48.526;9.044;2023-01-08T04:30:26;14.02;;;8.32;;
69083;SDS011;56185;48.526;9.044;2023-01-08T04:32:52;13.70;;;8.20;;
69083;SDS011;56185;48.526;9.044;2023-01-08T04:35:17;12.10;;;8.07;;
69083;SDS011;56185;48.526;9.044;2023-01-08T04:37:42;12.67;;;8.43;;
69083;SDS011;56185;48.526;9.044;2023-01-08T04:40:07;13.00;;;8.47;;
69083;SDS011;56185;48.526;9.044;2023-01-08T04:42:33;13.05;;;8.00;;
69083;SDS011;56185;48.526;9.044;2023-01-08T04:44:58;12.75;;;8.27;;
69083;SDS011;56185;48.526;9.044;2023-01-08T04:47:24;13.18;;;9.00;;
69083;SDS011;56185;48.526;9.044;2023-01-08T04:49:49;13.00;;;8.67;;
69083;SDS011;56185;48.526;9.044;2023-01-08T04:52:14;14.48;;;9.02;;
69083;SDS011;56185;48.526;9.044;2023-01-08T04:54:39;11.23;;;7.90;;
69083;SDS011;56185;48.526;9.044;2023-01-08T04:57:05;14.30;;;8.47;;
69083;SDS011;56185;48.526;9.044;2023-01-08T04:59:30;12.43;;;8.52;;
69083;SDS011;56185;48.526;9.044;2023-01-08T05:01:55;12.27;;;8.13;;
69083;SDS011;56185;48.526;9.044;2023-01-08T05:04:20;11.87;;;8.73;;
69083;SDS011;56185;48.526;9.044;2023-01-08T05:06:46;13.88;;;9.10;;
69083;SDS011;56185;48.526;9.044;2023-01-08T05:09:12;16.85;;;9.55;;
69083;SDS011;56185;48.526;9.044;2023-01-08T05:11:39;12.85;;;8.35;;
69083;SDS011;56185;48.526;9.044;2023-01-08T05:14:05;13.93;;;8.90;;
69083;SDS011;56185;48.526;9.044;2023-01-08T05:16:31;12.67;;;8.40;;
69083;SDS011;56185;48.526;9.044;2023-01-08T05:18:56;14.35;;;9.52;;
69083;SDS011;56185;48.526;9.044;2023-01-08T05:21:21;15.70;;;9.57;;
69083;SDS011;56185;48.526;9.044;2023-01-08T05:23:47;12.90;;;8.82;;
69083;SDS011;56185;48.526;9.044;2023-01-08T05:26:12;12.95;;;8.68;;
69083;SDS011;56185;48.526;9.044;2023-01-08T05:28:38;12.60;;;8.82;;
69083;SDS011;56185;48.526;9.044;2023-01-08T05:31:03;13.50;;;9.10;;
69083;SDS011;56185;48.526;9.044;2023-01-08T05:33:29;13.68;;;8.80;;
69083;SDS011;56185;48.526;9.044;2023-01-08T05:35:54;13.90;;;9.20;;
69083;SDS011;56185;48.526;9.044;2023-01-08T05:38:20;16.67;;;9.85;;
69083;SDS011;56185;48.526;9.044;2023-01-08T05:40:45;13.60;;;9.23;;
69083;SDS011;56185;48.526;9.044;2023-01-08T05:43:10;13.80;;;9.00;;
69083;SDS011;56185;48.526;9.044;2023-01-08T05:45:36;12.68;;;9.10;;
69083;SDS011;56185;48.526;9.044;2023-01-08T05:48:04;13.70;;;8.73;;
69083;SDS011;56185;48.526;9.044;2023-01-08T05:50:30;12.90;;;8.75;;
69083;SDS011;56185;48.526;9.044;2023-01-08T05:52:55;11.80;;;8.15;;
69083;SDS011;56185;48.526;9.044;2023-01-08T05:55:20;13.50;;;8.53;;
69083;SDS011;56185;48.526;9.044;2023-01-08T05:57:46;11.57;;;8.30;;
69083;SDS011;56185;48.526;9.044;2023-01-08T06:00:11;12.95;;;8.05;;
69083;SDS011;56185;48.526;9.044;2023-01-08T06:02:37;11.93;;;7.85;;
69083;SDS011;56185;48.526;9.044;2023-01-08T06:05:02;12.48;;;8.32;;
69083;SDS011;56185;48.526;9.044;2023-01-08T06:07:28;12.25;;;8.52;;
69083;SDS011;56185;48.526;9.044;2023-01-08T06:09:53;13.60;;;7.38;;
69083;SDS011;56185;48.526;9.044;2023-01-08T06:12:19;10.85;;;7.43;;
69083;SDS011;56185;48.526;9.044;2023-01-08T06:14:44;7.90;;;5.53;;
69083;SDS011;56185;48.526;9.044;2023-01-08T06:17:10;13.57;;;8.27;;
69083;SDS011;56185;48.526;9.044;2023-01-08T06:19:35;14.75;;;10.10;;
69083;SDS011;56185;48.526;9.044;2023-01-08T06:22:00;14.32;;;9.05;;
69083;SDS011;56185;48.526;9.044;2023-01-08T06:24:25;13.27;;;8.40;;
69083;SDS011;56185;48.526;9.044;2023-01-08T06:26:51;14.20;;;9.35;;
69083;SDS011;56185;48.526;9.044;2023-01-08T06:29:16;11.83;;;8.60;;
69083;SDS011;56185;48.526;9.044;2023-01-08T06:31:41;14.15;;;9.30;;
69083;SDS011;56185;48.526;9.044;2023-01-08T06:34:06;11.47;;;8.20;;
69083;SDS011;56185;48.526;9.044;2023-01-08T06:36:32;11.35;;;8.07;;
69083;SDS011;56185;48.526;9.044;2023-01-08T06:38:57;10.45;;;7.13;;
69083;SDS011;56185;48.526;9.044;2023-01-08T06:41:22;10.85;;;6.95;;
69083;SDS011;56185;48.526;9.044;2023-01-08T06:43:48;9.48;;;6.30;;
69083;SDS011;56185;48.526;9.044;2023-01-08T06:46:13;8.68;;;5.90;;
69083;SDS011;56185;48.526;9.044;2023-01-08T06:48:38;8.50;;;5.55;;
69083;SDS011;56185;48.526;9.044;2023-01-08T06:51:04;6.78;;;4.43;;
69083;SDS011;56185;48.526;9.044;2023-01-08T06:53:30;6.13;;;3.70;;
69083;SDS011;56185;48.526;9.044;2023-01-08T06:55:55;5.32;;;3.97;;
69083;SDS011;56185;48.526;9.044;2023-01-08T06:58:20;5.68;;;3.83;;
69083;SDS011;56185;48.526;9.044;2023-01-08T07:00:50;6.70;;;3.97;;
69083;SDS011;56185;48.526;9.044;2023-01-08T07:03:15;5.80;;;4.10;;
69083;SDS011;56185;48.526;9.044;2023-01-08T07:05:40;6.97;;;3.60;;
69083;SDS011;56185;48.526;9.044;2023-01-08T07:08:09;6.97;;;3.80;;
69083;SDS011;56185;48.526;9.044;2023-01-08T07:10:35;4.85;;;3.50;;
69083;SDS011;56185;48.526;9.044;2023-01-08T07:13:00;3.63;;;2.60;;
69083;SDS011;56185;48.526;9.044;2023-01-08T07:15:26;4.50;;;3.00;;
69083;SDS011;56185;48.526;9.044;2023-01-08T07:17:51;6.63;;;3.57;;
69083;SDS011;56185;48.526;9.044;2023-01-08T07:20:16;5.47;;;3.40;;
69083;SDS011;56185;48.526;9.044;2023-01-08T07:22:41;6.63;;;3.88;;
69083;SDS011;56185;48.526;9.044;2023-01-08T07:25:07;4.33;;;3.07;;
69083;SDS011;56185;48.526;9.044;2023-01-08T07:27:32;4.82;;;2.60;;
69083;SDS011;56185;48.526;9.044;2023-01-08T07:29:58;3.87;;;2.47;;
69083;SDS011;56185;48.526;9.044;2023-01-08T07:32:23;3.42;;;2.17;;
69083;SDS011;56185;48.526;9.044;2023-01-08T07:34:48;3.17;;;2.10;;
69083;SDS011;56185;48.526;9.044;2023-01-08T07:37:13;5.18;;;2.90;;
69083;SDS011;56185;48.526;9.044;2023-01-08T07:39:38;2.97;;;2.03;;
69083;SDS011;56185;48.526;9.044;2023-01-08T07:42:04;3.88;;;2.28;;
69083;SDS011;56185;48.526;9.044;2023-01-08T07:44:29;3.35;;;2.30;;
69083;SDS011;56185;48.526;9.044;2023-01-08T07:46:54;3.10;;;2.13;;
69083;SDS011;56185;48.526;9.044;2023-01-08T07:49:19;3.30;;;2.00;;
69083;SDS011;56185;48.526;9.044;2023-01-08T07:51:45;3.13;;;2.30;;
69083;SDS011;56185;48.526;9.044;2023-01-08T07:54:13;4.45;;;2.95;;
69083;SDS011;56185;48.526;9.044;2023-01-08T07:56:38;3.73;;;2.40;;
69083;SDS011;56185;48.526;9.044;2023-01-08T07:59:03;3.30;;;2.60;;
69083;SDS011;56185;48.526;9.044;2023-01-08T08:01:28;3.63;;;2.33;;
69083;SDS011;56185;48.526;9.044;2023-01-08T08:03:54;3.90;;;2.00;;
69083;SDS011;56185;48.526;9.044;2023-01-08T08:06:19;2.73;;;1.90;;
69083;SDS011;56185;48.526;9.044;2023-01-08T08:08:44;2.57;;;2.10;;
69083;SDS011;56185;48.526;9.044;2023-01-08T08:11:09;3.03;;;2.10;;
69083;SDS011;56185;48.526;9.044;2023-01-08T08:13:35;2.92;;;2.08;;
69083;SDS011;56185;48.526;9.044;2023-01-08T08:16:01;4.85;;;2.00;;
69083;SDS011;56185;48.526;9.044;2023-01-08T08:18:27;5.13;;;2.83;;
69083;SDS011;56185;48.526;9.044;2023-01-08T08:20:53;2.78;;;1.90;;
69083;SDS011;56185;48.526;9.044;2023-01-08T08:23:18;2.95;;;1.80;;
69083;SDS011;56185;48.526;9.044;2023-01-08T08:25:44;3.27;;;2.00;;
69083;SDS011;56185;48.526;9.044;2023-01-08T08:28:09;2.80;;;1.90;;
69083;SDS011;56185;48.526;9.044;2023-01-08T08:30:35;2.75;;;2.00;;
69083;SDS011;56185;48.526;9.044;2023-01-08T08:33:02;3.40;;;2.30;;
69083;SDS011;56185;48.526;9.044;2023-01-08T08:35:29;3.08;;;2.05;;
69083;SDS011;56185;48.526;9.044;2023-01-08T08:37:56;3.33;;;2.33;;
69083;SDS011;56185;48.526;9.044;2023-01-08T08:40:21;3.85;;;3.20;;
69083;SDS011;56185;48.526;9.044;2023-01-08T08:42:47;3.83;;;2.70;;
69083;SDS011;56185;48.526;9.044;2023-01-08T08:45:12;3.63;;;2.38;;
69083;SDS011;56185;48.526;9.044;2023-01-08T08:47:38;5.53;;;2.10;;
69083;SDS011;56185;48.526;9.044;2023-01-08T08:50:04;3.22;;;1.77;;
69083;SDS011;56185;48.526;9.044;2023-01-08T08:52:30;2.55;;;1.77;;
69083;SDS011;56185;48.526;9.044;2023-01-08T08:54:56;2.85;;;2.00;;
69083;SDS011;56185;48.526;9.044;2023-01-08T08:57:25;2.83;;;1.75;;
69083;SDS011;56185;48.526;9.044;2023-01-08T08:59:51;4.20;;;2.10;;
69083;SDS011;56185;48.526;9.044;2023-01-08T09:02:17;2.63;;;1.70;;
69083;SDS011;56185;48.526;9.044;2023-01-08T09:04:42;2.13;;;1.60;;
69083;SDS011;56185;48.526;9.044;2023-01-08T09:07:07;3.40;;;1.95;;
69083;SDS011;56185;48.526;9.044;2023-01-08T09:09:33;3.97;;;2.20;;
69083;SDS011;56185;48.526;9.044;2023-01-08T09:11:58;3.55;;;1.83;;
69083;SDS011;56185;48.526;9.044;2023-01-08T09:14:23;2.78;;;2.08;;
69083;SDS011;56185;48.526;9.044;2023-01-08T09:16:49;2.15;;;1.60;;
69083;SDS011;56185;48.526;9.044;2023-01-08T09:19:14;3.20;;;1.88;;
69083;SDS011;56185;48.526;9.044;2023-01-08T09:21:39;2.03;;;1.40;;
69083;SDS011;56185;48.526;9.044;2023-01-08T09:24:05;2.35;;;1.63;;
69083;SDS011;56185;48.526;9.044;2023-01-08T09:26:30;3.28;;;1.70;;
69083;SDS011;56185;48.526;9.044;2023-01-08T09:28:56;2.35;;;1.60;;
69083;SDS011;56185;48.526;9.044;2023-01-08T09:31:23;2.40;;;1.67;;
69083;SDS011;56185;48.526;9.044;2023-01-08T09:33:48;2.90;;;1.80;;
69083;SDS011;56185;48.526;9.044;2023-01-08T09:36:14;3.28;;;2.05;;
69083;SDS011;56185;48.526;9.044;2023-01-08T09:38:39;2.95;;;1.70;;
69083;SDS011;56185;48.526;9.044;2023-01-08T09:41:16;2.55;;;1.75;;
69083;SDS011;56185;48.526;9.044;2023-01-08T09:43:47;3.65;;;2.10;;
69083;SDS011;56185;48.526;9.044;2023-01-08T09:46:16;2.83;;;1.70;;
69083;SDS011;56185;48.526;9.044;2023-01-08T09:48:43;3.33;;;2.10;;
69083;SDS011;56185;48.526;9.044;2023-01-08T09:51:12;3.08;;;1.88;;
69083;SDS011;56185;48.526;9.044;2023-01-08T09:53:38;3.55;;;2.28;;
69083;SDS011;56185;48.526;9.044;2023-01-08T09:56:08;1.80;;;1.27;;
69083;SDS011;56185;48.526;9.044;2023-01-08T09:58:43;2.88;;;1.90;;
69083;SDS011;56185;48.526;9.044;2023-01-08T10:01:11;3.45;;;1.75;;
69083;SDS011;56185;48.526;9.044;2023-01-08T10:03:40;2.83;;;1.60;;
69083;SDS011;56185;48.526;9.044;2023-01-08T10:06:09;2.30;;;1.65;;
69083;SDS011;56185;48.526;9.044;2023-01-08T10:08:39;3.15;;;1.30;;
69083;SDS011;56185;48.526;9.044;2023-01-08T10:11:05;1.95;;;1.38;;
69083;SDS011;56185;48.526;9.044;2023-01-08T10:13:32;2.47;;;1.40;;
69083;SDS011;56185;48.526;9.044;2023-01-08T10:16:00;1.83;;;1.30;;
69083;SDS011;56185;48.526;9.044;2023-01-08T10:18:30;1.83;;;1.30;;
69083;SDS011;56185;48.526;9.044;2023-01-08T10:20:57;1.90;;;1.40;;
69083;SDS011;56185;48.526;9.044;2023-01-08T10:23:22;1.75;;;1.20;;
69083;SDS011;56185;48.526;9.044;2023-01-08T10:25:49;2.38;;;1.40;;
69083;SDS011;56185;48.526;9.044;2023-01-08T10:28:21;3.08;;;1.40;;
69083;SDS011;56185;48.526;9.044;2023-01-08T10:30:50;1.98;;;1.30;;
69083;SDS011;56185;48.526;9.044;2023-01-08T10:33:22;2.35;;;1.10;;
69083;SDS011;56185;48.526;9.044;2023-01-08T10:35:59;1.88;;;1.30;;
69083;SDS011;56185;48.526;9.044;2023-01-08T10:38:31;2.28;;;1.10;;
69083;SDS011;56185;48.526;9.044;2023-01-08T10:41:07;1.50;;;1.10;;
69083;SDS011;56185;48.526;9.044;2023-01-08T10:43:36;1.85;;;1.20;;
69083;SDS011;56185;48.526;9.044;2023-01-08T10:46:14;2.28;;;1.33;;
69083;SDS011;56185;48.526;9.044;2023-01-08T10:48:47;2.00;;;1.40;;
69083;SDS011;56185;48.526;9.044;2023-01-08T10:51:23;1.98;;;1.30;;
69083;SDS011;56185;48.526;9.044;2023-01-08T10:53:53;1.55;;;1.20;;
69083;SDS011;56185;48.526;9.044;2023-01-08T10:56:23;1.92;;;1.10;;
69083;SDS011;56185;48.526;9.044;2023-01-08T10:58:52;1.55;;;1.20;;
69083;SDS011;56185;48.526;9.044;2023-01-08T11:01:22;1.50;;;1.15;;
69083;SDS011;56185;48.526;9.044;2023-01-08T11:03:52;2.47;;;1.15;;
69083;SDS011;56185;48.526;9.044;2023-01-08T11:06:33;2.70;;;1.98;;
69083;SDS011;56185;48.526;9.044;2023-01-08T11:09:03;4.00;;;2.50;;
69083;SDS011;56185;48.526;9.044;2023-01-08T11:11:47;1.80;;;1.40;;
69083;SDS011;56185;48.526;9.044;2023-01-08T11:14:19;2.63;;;1.80;;
69083;SDS011;56185;48.526;9.044;2023-01-08T11:16:54;2.10;;;1.55;;
69083;SDS011;56185;48.526;9.044;2023-01-08T11:19:31;2.20;;;1.40;;
69083;SDS011;56185;48.526;9.044;2023-01-08T11:22:04;2.63;;;1.50;;
69083;SDS011;56185;48.526;9.044;2023-01-08T11:24:41;2.75;;;1.65;;
69083;SDS011;56185;48.526;9.044;2023-01-08T11:27:14;1.50;;;1.08;;
69083;SDS011;56185;48.526;9.044;2023-01-08T11:29:53;2.17;;;1.30;;
69083;SDS011;56185;48.526;9.044;2023-01-08T11:32:36;2.50;;;1.40;;
69083;SDS011;56185;48.526;9.044;2023-01-08T11:35:27;1.48;;;1.10;;
69083;SDS011;56185;48.526;9.044;2023-01-08T11:37:55;1.77;;;1.20;;
69083;SDS011;56185;48.526;9.044;2023-01-08T11:40:33;2.03;;;1.30;;
69083;SDS011;56185;48.526;9.044;2023-01-08T11:48:20;1.77;;;1.02;;
69083;SDS011;56185;48.526;9.044;2023-01-08T11:51:08;2.08;;;1.20;;
69083;SDS011;56185;48.526;9.044;2023-01-08T12:05:25;2.83;;;1.65;;
69083;SDS011;56185;48.526;9.044;2023-01-08T12:33:35;1.33;;;0.90;;
69083;SDS011;56185;48.526;9.044;2023-01-08T12:36:26;1.35;;;0.95;;
69083;SDS011;56185;48.526;9.044;2023-01-08T12:38:52;1.67;;;1.10;;
69083;SDS011;56185;48.526;9.044;2023-01-08T12:41:25;1.65;;;1.02;;
69083;SDS011;56185;48.526;9.044;2023-01-08T12:43:52;2.45;;;1.20;;
69083;SDS011;56185;48.526;9.044;2023-01-08T12:46:18;1.95;;;1.27;;
69083;SDS011;56185;48.526;9.044;2023-01-08T12:48:47;5.38;;;2.78;;
69083;SDS011;56185;48.526;9.044;2023-01-08T12:56:42;1.60;;;1.05;;
69083;SDS011;56185;48.526;9.044;2023-01-08T12:59:20;2.50;;;1.42;;
69083;SDS011;56185;48.526;9.044;2023-01-08T13:04:57;1.20;;;0.90;;
69083;SDS011;56185;48.526;9.044;2023-01-08T13:07:40;2.47;;;1.00;;
69083;SDS011;56185;48.526;9.044;2023-01-08T13:10:18;1.83;;;0.90;;
69083;SDS011;56185;48.526;9.044;2023-01-08T13:12:48;1.30;;;1.00;;
69083;SDS011;56185;48.526;9.044;2023-01-08T13:15:19;1.33;;;0.90;;
69083;SDS011;56185;48.526;9.044;2023-01-08T13:17:46;1.35;;;0.95;;
69083;SDS011;56185;48.526;9.044;2023-01-08T13:20:13;7.47;;;3.40;;
69083;SDS011;56185;48.526;9.044;2023-01-08T13:22:49;2.88;;;1.42;;
69083;SDS011;56185;48.526;9.044;2023-01-08T13:27:45;4.40;;;2.23;;
69083;SDS011;56185;48.526;9.044;2023-01-08T13:33:01;2.40;;;1.40;;
69083;SDS011;56185;48.526;9.044;2023-01-08T13:35:29;1.73;;;1.33;;
69083;SDS011;56185;48.526;9.044;2023-01-08T13:40:36;2.25;;;1.50;;
69083;SDS011;56185;48.526;9.044;2023-01-08T13:43:14;2.40;;;1.60;;
69083;SDS011;56185;48.526;9.044;2023-01-08T13:48:28;1.83;;;1.30;;
69083;SDS011;56185;48.526;9.044;2023-01-08T13:50:56;1.58;;;1.10;;
69083;SDS011;56185;48.526;9.044;2023-01-08T13:53:22;1.75;;;1.10;;
69083;SDS011;56185;48.526;9.044;2023-01-08T13:55:53;1.45;;;1.02;;
69083;SDS011;56185;48.526;9.044;2023-01-08T13:58:41;2.00;;;1.13;;
69083;SDS011;56185;48.526;9.044;2023-01-08T14:01:10;2.08;;;1.13;;
69083;SDS011;56185;48.526;9.044;2023-01-08T14:03:37;2.95;;;1.05;;
69083;SDS011;56185;48.526;9.044;2023-01-08T14:08:54;1.40;;;1.00;;
69083;SDS011;56185;48.526;9.044;2023-01-08T14:11:53;1.60;;;1.05;;
69083;SDS011;56185;48.526;9.044;2023-01-08T14:14:13;2.22;;;1.30;;
69083;SDS011;56185;48.526;9.044;2023-01-08T14:16:40;2.00;;;1.40;;
69083;SDS011;56185;48.526;9.044;2023-01-08T14:19:06;4.40;;;2.13;;
69083;SDS011;56185;48.526;9.044;2023-01-08T14:21:31;1.92;;;1.20;;
69083;SDS011;56185;48.526;9.044;2023-01-08T14:23:57;3.83;;;1.73;;
69083;SDS011;56185;48.526;9.044;2023-01-08T14:26:27;2.55;;;1.65;;
69083;SDS011;56185;48.526;9.044;2023-01-08T14:28:55;3.47;;;1.50;;
69083;SDS011;56185;48.526;9.044;2023-01-08T14:31:22;3.63;;;1.90;;
69083;SDS011;56185;48.526;9.044;2023-01-08T14:33:49;4.35;;;2.40;;
69083;SDS011;56185;48.526;9.044;2023-01-08T14:36:15;3.92;;;1.90;;
69083;SDS011;56185;48.526;9.044;2023-01-08T14:38:40;3.70;;;1.88;;
69083;SDS011;56185;48.526;9.044;2023-01-08T14:41:10;2.65;;;1.60;;
69083;SDS011;56185;48.526;9.044;2023-01-08T14:43:44;3.58;;;2.28;;
69083;SDS011;56185;48.526;9.044;2023-01-08T14:46:17;3.05;;;1.85;;
69083;SDS011;56185;48.526;9.044;2023-01-08T14:48:47;1.98;;;1.38;;
69083;SDS011;56185;48.526;9.044;2023-01-08T14:51:19;2.83;;;1.90;;
69083;SDS011;56185;48.526;9.044;2023-01-08T14:53:48;2.65;;;1.40;;
69083;SDS011;56185;48.526;9.044;2023-01-08T14:56:17;4.28;;;2.47;;
69083;SDS011;56185;48.526;9.044;2023-01-08T14:58:45;3.50;;;2.40;;
69083;SDS011;56185;48.526;9.044;2023-01-08T15:01:15;4.82;;;2.47;;
69083;SDS011;56185;48.526;9.044;2023-01-08T15:03:49;6.40;;;3.28;;
69083;SDS011;56185;48.526;9.044;2023-01-08T15:06:33;8.93;;;3.75;;
69083;SDS011;56185;48.526;9.044;2023-01-08T15:08:58;2.83;;;1.90;;
69083;SDS011;56185;48.526;9.044;2023-01-08T15:11:25;13.32;;;6.53;;
69083;SDS011;56185;48.526;9.044;2023-01-08T15:14:11;9.70;;;4.95;;
69083;SDS011;56185;48.526;9.044;2023-01-08T15:16:38;7.07;;;3.97;;
69083;SDS011;56185;48.526;9.044;2023-01-08T15:19:05;7.15;;;3.75;;
69083;SDS011;56185;48.526;9.044;2023-01-08T15:21:35;6.70;;;3.70;;
69083;SDS011;56185;48.526;9.044;2023-01-08T15:24:02;5.85;;;3.47;;
69083;SDS011;56185;48.526;9.044;2023-01-08T15:26:28;4.22;;;2.38;;
69083;SDS011;56185;48.526;9.044;2023-01-08T15:31:24;3.15;;;2.10;;
69083;SDS011;56185;48.526;9.044;2023-01-08T15:33:51;4.07;;;2.50;;
69083;SDS011;56185;48.526;9.044;2023-01-08T15:36:16;4.00;;;2.50;;
69083;SDS011;56185;48.526;9.044;2023-01-08T15:38:41;3.10;;;2.17;;
69083;SDS011;56185;48.526;9.044;2023-01-08T15:41:08;3.75;;;2.20;;
69083;SDS011;56185;48.526;9.044;2023-01-08T15:43:34;2.83;;;1.85;;
69083;SDS011;56185;48.526;9.044;2023-01-08T15:46:00;2.83;;;1.85;;
69083;SDS011;56185;48.526;9.044;2023-01-08T15:48:25;2.80;;;1.80;;
69083;SDS011;56185;48.526;9.044;2023-01-08T15:50:56;2.88;;;1.73;;
69083;SDS011;56185;48.526;9.044;2023-01-08T15:53:21;2.33;;;1.70;;
69083;SDS011;56185;48.526;9.044;2023-01-08T15:55:46;2.95;;;1.65;;
69083;SDS011;56185;48.526;9.044;2023-01-08T15:58:13;2.83;;;1.73;;
69083;SDS011;56185;48.526;9.044;2023-01-08T16:00:40;3.78;;;2.08;;
69083;SDS011;56185;48.526;9.044;2023-01-08T16:03:06;2.53;;;1.90;;
69083;SDS011;56185;48.526;9.044;2023-01-08T16:05:32;2.75;;;1.85;;
69083;SDS011;56185;48.526;9.044;2023-01-08T16:07:58;4.40;;;2.92;;
69083;SDS011;56185;48.526;9.044;2023-01-08T16:10:23;4.38;;;2.72;;
69083;SDS011;56185;48.526;9.044;2023-01-08T16:12:49;3.15;;;2.30;;
69083;SDS011;56185;48.526;9.044;2023-01-08T16:15:15;1.90;;;1.60;;